Farum, Denmark
Current Conditions -  °F | °C
As of 7:50 AM on Sunday 26 Oct 2014 (Local Time) from EKCH Reporting Station
Broken Clouds Broken Clouds  
Wind Chill: 50°   Ceiling: 25000
Heat Index: 50°   Visibility: 6mi
Dew Point: 48°   Wind: 10mph
Humidity: 94%   Direction: 220°SW
Pressure: 30.12"   Gusts: NA
Location:  55.81°N, 12.36°E
Report Text: EKCH 260550Z 22009KT 9999 FEW049 BKN250 10/09 Q1020 NOSIG
Loading
Personal Weather Stations






























Interactive Weather Map
Tropical Storm Tracking
New forecast layout! Learn more

10-Day Weather Forecast

Advertisements
Track Severe Weather on mobile